Robbins, Tennessee
Current Conditions -  °F | °C
As of 10:53 AM on Thursday 30 Oct 2014 (Local Time) from KOQT Reporting Station
Clear Clear  
Wind Chill: 51°   Ceiling: Unl
Heat Index: 51°   Visibility: 10mi
Dew Point: 43°   Wind: 0mph
Humidity: 74%   Direction: NA
Pressure: 30.13"   Gusts: NA
Location:  36.35°N, 84.59°W
Report Text: KOQT 301453Z AUTO 00000KT 10SM CLR 11/06 A3013 RMK AO2 SLP208 T01060061 50000
Loading
Personal Weather Stations






























Interactive Weather Map
Tropical Storm Tracking
New forecast layout! Learn more

10-Day Weather Forecast

Advertisements
Track Severe Weather on mobile